sensor_id;sensor_type;location;lat;lon;timestamp;P1;durP1;ratioP1;P2;durP2;ratioP2
71622;SDS011;59473;53.214;5.728;2023-04-24T00:01:38;17.97;;;7.43;;
71622;SDS011;59473;53.214;5.728;2023-04-24T00:04:04;18.23;;;7.57;;
71622;SDS011;59473;53.214;5.728;2023-04-24T00:06:29;15.33;;;7.80;;
71622;SDS011;59473;53.214;5.728;2023-04-24T00:08:58;17.67;;;7.63;;
71622;SDS011;59473;53.214;5.728;2023-04-24T00:11:23;18.07;;;8.40;;
71622;SDS011;59473;53.214;5.728;2023-04-24T00:13:48;23.43;;;9.17;;
71622;SDS011;59473;53.214;5.728;2023-04-24T00:16:14;21.77;;;9.17;;
71622;SDS011;59473;53.214;5.728;2023-04-24T00:18:39;24.37;;;9.07;;
71622;SDS011;59473;53.214;5.728;2023-04-24T00:21:04;22.20;;;9.25;;
71622;SDS011;59473;53.214;5.728;2023-04-24T00:23:30;23.20;;;9.60;;
71622;SDS011;59473;53.214;5.728;2023-04-24T00:25:55;22.00;;;9.85;;
71622;SDS011;59473;53.214;5.728;2023-04-24T00:28:20;22.93;;;8.47;;
71622;SDS011;59473;53.214;5.728;2023-04-24T00:30:45;24.73;;;10.73;;
71622;SDS011;59473;53.214;5.728;2023-04-24T00:33:10;17.33;;;8.55;;
71622;SDS011;59473;53.214;5.728;2023-04-24T00:35:36;22.05;;;10.20;;
71622;SDS011;59473;53.214;5.728;2023-04-24T00:38:01;18.63;;;7.90;;
71622;SDS011;59473;53.214;5.728;2023-04-24T00:40:26;21.43;;;9.30;;
71622;SDS011;59473;53.214;5.728;2023-04-24T00:42:52;20.73;;;9.88;;
71622;SDS011;59473;53.214;5.728;2023-04-24T00:45:17;19.03;;;8.67;;
71622;SDS011;59473;53.214;5.728;2023-04-24T00:47:42;22.87;;;9.10;;
71622;SDS011;59473;53.214;5.728;2023-04-24T00:50:08;17.37;;;8.07;;
71622;SDS011;59473;53.214;5.728;2023-04-24T00:52:33;22.00;;;10.03;;
71622;SDS011;59473;53.214;5.728;2023-04-24T00:54:58;23.73;;;10.57;;
71622;SDS011;59473;53.214;5.728;2023-04-24T00:57:24;23.33;;;9.57;;
71622;SDS011;59473;53.214;5.728;2023-04-24T00:59:50;22.27;;;8.07;;
71622;SDS011;59473;53.214;5.728;2023-04-24T01:02:15;24.67;;;9.65;;
71622;SDS011;59473;53.214;5.728;2023-04-24T01:04:40;23.08;;;10.68;;
71622;SDS011;59473;53.214;5.728;2023-04-24T01:07:06;25.48;;;10.38;;
71622;SDS011;59473;53.214;5.728;2023-04-24T01:09:42;23.15;;;10.27;;
71622;SDS011;59473;53.214;5.728;2023-04-24T01:12:09;23.77;;;9.95;;
71622;SDS011;59473;53.214;5.728;2023-04-24T01:14:34;25.50;;;9.57;;
71622;SDS011;59473;53.214;5.728;2023-04-24T01:16:59;24.80;;;10.57;;
71622;SDS011;59473;53.214;5.728;2023-04-24T01:19:25;22.75;;;9.20;;
71622;SDS011;59473;53.214;5.728;2023-04-24T01:21:50;25.60;;;10.53;;
71622;SDS011;59473;53.214;5.728;2023-04-24T01:24:17;22.85;;;9.35;;
71622;SDS011;59473;53.214;5.728;2023-04-24T01:26:44;25.23;;;9.17;;
71622;SDS011;59473;53.214;5.728;2023-04-24T01:29:09;22.83;;;9.17;;
71622;SDS011;59473;53.214;5.728;2023-04-24T01:31:35;26.35;;;10.88;;
71622;SDS011;59473;53.214;5.728;2023-04-24T01:34:00;22.00;;;10.50;;
71622;SDS011;59473;53.214;5.728;2023-04-24T01:36:26;21.70;;;9.80;;
71622;SDS011;59473;53.214;5.728;2023-04-24T01:38:52;22.30;;;9.65;;
71622;SDS011;59473;53.214;5.728;2023-04-24T01:41:17;21.50;;;10.37;;
71622;SDS011;59473;53.214;5.728;2023-04-24T01:43:42;23.37;;;9.23;;
71622;SDS011;59473;53.214;5.728;2023-04-24T01:46:07;21.50;;;8.83;;
71622;SDS011;59473;53.214;5.728;2023-04-24T01:48:33;20.73;;;8.27;;
71622;SDS011;59473;53.214;5.728;2023-04-24T01:50:58;23.60;;;10.10;;
71622;SDS011;59473;53.214;5.728;2023-04-24T01:53:24;22.48;;;10.52;;
71622;SDS011;59473;53.214;5.728;2023-04-24T01:55:49;20.85;;;9.43;;
71622;SDS011;59473;53.214;5.728;2023-04-24T01:58:14;18.93;;;9.50;;
71622;SDS011;59473;53.214;5.728;2023-04-24T02:00:39;21.13;;;9.40;;
71622;SDS011;59473;53.214;5.728;2023-04-24T02:03:05;21.63;;;9.57;;
71622;SDS011;59473;53.214;5.728;2023-04-24T02:05:30;35.07;;;18.27;;
71622;SDS011;59473;53.214;5.728;2023-04-24T02:07:56;43.70;;;17.93;;
71622;SDS011;59473;53.214;5.728;2023-04-24T02:10:21;51.23;;;20.93;;
71622;SDS011;59473;53.214;5.728;2023-04-24T02:12:46;37.72;;;18.75;;
71622;SDS011;59473;53.214;5.728;2023-04-24T02:15:12;39.27;;;16.30;;
71622;SDS011;59473;53.214;5.728;2023-04-24T02:17:37;34.40;;;12.80;;
71622;SDS011;59473;53.214;5.728;2023-04-24T02:20:02;30.80;;;11.20;;
71622;SDS011;59473;53.214;5.728;2023-04-24T02:22:28;28.33;;;11.07;;
71622;SDS011;59473;53.214;5.728;2023-04-24T02:24:53;20.27;;;8.47;;
71622;SDS011;59473;53.214;5.728;2023-04-24T02:27:18;25.67;;;9.90;;
71622;SDS011;59473;53.214;5.728;2023-04-24T02:29:44;24.27;;;10.50;;
71622;SDS011;59473;53.214;5.728;2023-04-24T02:32:09;22.13;;;9.07;;
71622;SDS011;59473;53.214;5.728;2023-04-24T02:34:40;19.17;;;8.80;;
71622;SDS011;59473;53.214;5.728;2023-04-24T02:37:05;22.10;;;7.60;;
71622;SDS011;59473;53.214;5.728;2023-04-24T02:39:30;19.50;;;10.50;;
71622;SDS011;59473;53.214;5.728;2023-04-24T02:41:56;18.80;;;7.17;;
71622;SDS011;59473;53.214;5.728;2023-04-24T02:44:21;21.57;;;7.37;;
71622;SDS011;59473;53.214;5.728;2023-04-24T02:46:47;20.30;;;7.40;;
71622;SDS011;59473;53.214;5.728;2023-04-24T02:49:12;18.83;;;7.80;;
71622;SDS011;59473;53.214;5.728;2023-04-24T02:51:38;18.60;;;6.95;;
71622;SDS011;59473;53.214;5.728;2023-04-24T02:54:06;15.73;;;6.93;;
71622;SDS011;59473;53.214;5.728;2023-04-24T02:56:31;20.77;;;6.97;;
71622;SDS011;59473;53.214;5.728;2023-04-24T02:58:56;14.67;;;7.97;;
71622;SDS011;59473;53.214;5.728;2023-04-24T03:01:21;16.00;;;8.23;;
71622;SDS011;59473;53.214;5.728;2023-04-24T03:03:46;17.30;;;7.23;;
71622;SDS011;59473;53.214;5.728;2023-04-24T03:06:12;14.03;;;7.00;;
71622;SDS011;59473;53.214;5.728;2023-04-24T03:08:37;15.00;;;6.83;;
71622;SDS011;59473;53.214;5.728;2023-04-24T03:11:02;14.57;;;7.37;;
71622;SDS011;59473;53.214;5.728;2023-04-24T03:13:27;14.43;;;6.60;;
71622;SDS011;59473;53.214;5.728;2023-04-24T03:15:54;21.65;;;11.85;;
71622;SDS011;59473;53.214;5.728;2023-04-24T03:18:19;29.40;;;12.77;;
71622;SDS011;59473;53.214;5.728;2023-04-24T03:20:47;28.20;;;12.33;;
71622;SDS011;59473;53.214;5.728;2023-04-24T03:23:12;34.95;;;17.73;;
71622;SDS011;59473;53.214;5.728;2023-04-24T03:25:37;35.93;;;20.13;;
71622;SDS011;59473;53.214;5.728;2023-04-24T03:28:03;36.00;;;21.60;;
71622;SDS011;59473;53.214;5.728;2023-04-24T03:30:28;38.93;;;20.87;;
71622;SDS011;59473;53.214;5.728;2023-04-24T03:32:53;32.43;;;14.77;;
71622;SDS011;59473;53.214;5.728;2023-04-24T03:35:18;24.93;;;15.83;;
71622;SDS011;59473;53.214;5.728;2023-04-24T03:37:44;26.13;;;13.45;;
71622;SDS011;59473;53.214;5.728;2023-04-24T03:40:09;30.92;;;13.90;;
71622;SDS011;59473;53.214;5.728;2023-04-24T03:42:34;27.38;;;18.38;;
71622;SDS011;59473;53.214;5.728;2023-04-24T03:45:00;24.23;;;16.23;;
71622;SDS011;59473;53.214;5.728;2023-04-24T03:47:25;28.53;;;16.37;;
71622;SDS011;59473;53.214;5.728;2023-04-24T03:49:50;22.17;;;12.53;;
71622;SDS011;59473;53.214;5.728;2023-04-24T03:52:16;22.43;;;12.80;;
71622;SDS011;59473;53.214;5.728;2023-04-24T03:54:41;16.67;;;11.37;;
71622;SDS011;59473;53.214;5.728;2023-04-24T03:57:06;18.00;;;11.40;;
71622;SDS011;59473;53.214;5.728;2023-04-24T03:59:31;26.37;;;13.10;;
71622;SDS011;59473;53.214;5.728;2023-04-24T04:01:56;26.27;;;17.70;;
71622;SDS011;59473;53.214;5.728;2023-04-24T04:04:22;29.30;;;20.13;;
71622;SDS011;59473;53.214;5.728;2023-04-24T04:06:47;35.43;;;21.70;;
71622;SDS011;59473;53.214;5.728;2023-04-24T04:09:12;39.33;;;22.40;;
71622;SDS011;59473;53.214;5.728;2023-04-24T04:11:38;24.00;;;14.45;;
71622;SDS011;59473;53.214;5.728;2023-04-24T04:14:03;25.87;;;15.63;;
71622;SDS011;59473;53.214;5.728;2023-04-24T04:16:28;16.27;;;10.87;;
71622;SDS011;59473;53.214;5.728;2023-04-24T04:18:54;9.30;;;5.57;;
71622;SDS011;59473;53.214;5.728;2023-04-24T04:21:20;9.93;;;5.28;;
71622;SDS011;59473;53.214;5.728;2023-04-24T04:23:45;9.30;;;4.37;;
71622;SDS011;59473;53.214;5.728;2023-04-24T04:26:11;9.37;;;5.73;;
71622;SDS011;59473;53.214;5.728;2023-04-24T04:28:37;9.67;;;5.40;;
71622;SDS011;59473;53.214;5.728;2023-04-24T04:31:04;12.02;;;5.50;;
71622;SDS011;59473;53.214;5.728;2023-04-24T04:33:29;12.00;;;7.50;;
71622;SDS011;59473;53.214;5.728;2023-04-24T04:35:54;14.32;;;7.65;;
71622;SDS011;59473;53.214;5.728;2023-04-24T04:38:23;18.37;;;9.33;;
71622;SDS011;59473;53.214;5.728;2023-04-24T04:40:48;23.07;;;12.70;;
71622;SDS011;59473;53.214;5.728;2023-04-24T04:43:14;23.50;;;11.87;;
71622;SDS011;59473;53.214;5.728;2023-04-24T04:45:41;28.10;;;14.75;;
71622;SDS011;59473;53.214;5.728;2023-04-24T04:48:10;34.63;;;16.25;;
71622;SDS011;59473;53.214;5.728;2023-04-24T04:50:38;34.33;;;17.52;;
71622;SDS011;59473;53.214;5.728;2023-04-24T04:53:03;35.27;;;16.43;;
71622;SDS011;59473;53.214;5.728;2023-04-24T04:55:29;32.63;;;16.17;;
71622;SDS011;59473;53.214;5.728;2023-04-24T04:57:55;26.73;;;17.02;;
71622;SDS011;59473;53.214;5.728;2023-04-24T05:00:21;28.20;;;17.37;;
71622;SDS011;59473;53.214;5.728;2023-04-24T05:02:46;28.23;;;16.08;;
71622;SDS011;59473;53.214;5.728;2023-04-24T05:05:11;27.00;;;15.27;;
71622;SDS011;59473;53.214;5.728;2023-04-24T05:07:36;22.67;;;14.03;;
71622;SDS011;59473;53.214;5.728;2023-04-24T05:10:02;15.60;;;8.70;;
71622;SDS011;59473;53.214;5.728;2023-04-24T05:12:27;15.80;;;11.50;;
71622;SDS011;59473;53.214;5.728;2023-04-24T05:14:53;16.20;;;10.37;;
71622;SDS011;59473;53.214;5.728;2023-04-24T05:17:18;11.10;;;7.63;;
71622;SDS011;59473;53.214;5.728;2023-04-24T05:19:43;11.50;;;8.40;;
71622;SDS011;59473;53.214;5.728;2023-04-24T05:22:08;15.47;;;10.53;;
71622;SDS011;59473;53.214;5.728;2023-04-24T05:24:34;16.17;;;11.25;;
71622;SDS011;59473;53.214;5.728;2023-04-24T05:27:00;15.10;;;10.47;;
71622;SDS011;59473;53.214;5.728;2023-04-24T05:29:25;13.07;;;8.67;;
71622;SDS011;59473;53.214;5.728;2023-04-24T05:31:51;11.35;;;6.72;;
71622;SDS011;59473;53.214;5.728;2023-04-24T05:34:16;11.57;;;6.40;;
71622;SDS011;59473;53.214;5.728;2023-04-24T05:36:41;15.63;;;6.53;;
71622;SDS011;59473;53.214;5.728;2023-04-24T05:39:07;10.23;;;6.50;;
71622;SDS011;59473;53.214;5.728;2023-04-24T05:41:33;13.23;;;6.53;;
71622;SDS011;59473;53.214;5.728;2023-04-24T05:43:58;11.73;;;6.50;;
71622;SDS011;59473;53.214;5.728;2023-04-24T05:46:23;11.60;;;5.77;;
71622;SDS011;59473;53.214;5.728;2023-04-24T05:48:48;12.03;;;6.60;;
71622;SDS011;59473;53.214;5.728;2023-04-24T05:51:13;16.73;;;7.03;;
71622;SDS011;59473;53.214;5.728;2023-04-24T05:53:39;10.77;;;6.87;;
71622;SDS011;59473;53.214;5.728;2023-04-24T05:56:04;11.27;;;5.57;;
71622;SDS011;59473;53.214;5.728;2023-04-24T05:58:29;14.90;;;5.30;;
71622;SDS011;59473;53.214;5.728;2023-04-24T06:00:55;10.57;;;5.57;;
71622;SDS011;59473;53.214;5.728;2023-04-24T06:03:20;9.07;;;4.90;;
71622;SDS011;59473;53.214;5.728;2023-04-24T06:05:46;11.30;;;5.17;;
71622;SDS011;59473;53.214;5.728;2023-04-24T06:08:11;15.47;;;5.50;;
71622;SDS011;59473;53.214;5.728;2023-04-24T06:10:37;13.30;;;7.30;;
71622;SDS011;59473;53.214;5.728;2023-04-24T06:13:02;14.47;;;8.17;;
71622;SDS011;59473;53.214;5.728;2023-04-24T06:15:30;17.43;;;9.57;;
71622;SDS011;59473;53.214;5.728;2023-04-24T06:17:56;19.38;;;10.38;;
71622;SDS011;59473;53.214;5.728;2023-04-24T06:20:21;26.77;;;13.87;;
71622;SDS011;59473;53.214;5.728;2023-04-24T06:22:46;24.57;;;13.20;;
71622;SDS011;59473;53.214;5.728;2023-04-24T06:25:12;32.10;;;16.60;;
71622;SDS011;59473;53.214;5.728;2023-04-24T06:27:37;35.63;;;17.20;;
71622;SDS011;59473;53.214;5.728;2023-04-24T06:30:02;40.60;;;23.40;;
71622;SDS011;59473;53.214;5.728;2023-04-24T06:32:28;40.97;;;19.90;;
71622;SDS011;59473;53.214;5.728;2023-04-24T06:34:53;47.30;;;25.47;;
71622;SDS011;59473;53.214;5.728;2023-04-24T06:37:18;36.90;;;20.93;;
71622;SDS011;59473;53.214;5.728;2023-04-24T06:39:44;34.80;;;17.53;;
71622;SDS011;59473;53.214;5.728;2023-04-24T06:42:09;27.52;;;16.40;;
71622;SDS011;59473;53.214;5.728;2023-04-24T06:44:35;23.30;;;13.70;;
71622;SDS011;59473;53.214;5.728;2023-04-24T06:47:05;20.65;;;13.68;;
71622;SDS011;59473;53.214;5.728;2023-04-24T06:49:30;28.57;;;15.73;;
71622;SDS011;59473;53.214;5.728;2023-04-24T06:51:56;30.00;;;18.73;;
71622;SDS011;59473;53.214;5.728;2023-04-24T06:54:21;34.57;;;16.77;;
71622;SDS011;59473;53.214;5.728;2023-04-24T06:56:46;34.47;;;19.03;;
71622;SDS011;59473;53.214;5.728;2023-04-24T06:59:12;28.42;;;15.05;;
71622;SDS011;59473;53.214;5.728;2023-04-24T07:01:38;34.70;;;22.30;;
71622;SDS011;59473;53.214;5.728;2023-04-24T07:04:03;39.40;;;21.57;;
71622;SDS011;59473;53.214;5.728;2023-04-24T07:06:28;35.97;;;15.97;;
71622;SDS011;59473;53.214;5.728;2023-04-24T07:08:55;34.67;;;22.17;;
71622;SDS011;59473;53.214;5.728;2023-04-24T07:11:21;35.35;;;21.58;;
71622;SDS011;59473;53.214;5.728;2023-04-24T07:13:47;28.38;;;17.45;;
71622;SDS011;59473;53.214;5.728;2023-04-24T07:16:12;32.80;;;17.23;;
71622;SDS011;59473;53.214;5.728;2023-04-24T07:18:38;32.33;;;20.70;;
71622;SDS011;59473;53.214;5.728;2023-04-24T07:21:04;30.60;;;18.23;;
71622;SDS011;59473;53.214;5.728;2023-04-24T07:23:29;27.47;;;17.87;;
71622;SDS011;59473;53.214;5.728;2023-04-24T07:25:56;27.73;;;16.38;;
71622;SDS011;59473;53.214;5.728;2023-04-24T07:28:21;23.40;;;14.50;;
71622;SDS011;59473;53.214;5.728;2023-04-24T07:30:46;17.43;;;12.07;;
71622;SDS011;59473;53.214;5.728;2023-04-24T07:33:11;20.70;;;13.30;;
71622;SDS011;59473;53.214;5.728;2023-04-24T07:35:38;24.17;;;13.00;;
71622;SDS011;59473;53.214;5.728;2023-04-24T07:38:03;20.87;;;11.93;;
71622;SDS011;59473;53.214;5.728;2023-04-24T07:40:28;21.33;;;12.13;;
71622;SDS011;59473;53.214;5.728;2023-04-24T07:42:53;21.03;;;11.17;;
71622;SDS011;59473;53.214;5.728;2023-04-24T07:45:19;18.43;;;11.17;;
71622;SDS011;59473;53.214;5.728;2023-04-24T07:47:44;18.97;;;10.43;;
71622;SDS011;59473;53.214;5.728;2023-04-24T07:50:10;18.27;;;9.80;;
71622;SDS011;59473;53.214;5.728;2023-04-24T07:52:36;19.70;;;10.53;;
71622;SDS011;59473;53.214;5.728;2023-04-24T07:55:01;18.47;;;11.00;;
71622;SDS011;59473;53.214;5.728;2023-04-24T07:57:27;18.75;;;11.05;;
71622;SDS011;59473;53.214;5.728;2023-04-24T07:59:52;17.10;;;9.83;;
71622;SDS011;59473;53.214;5.728;2023-04-24T08:02:18;18.33;;;8.47;;
71622;SDS011;59473;53.214;5.728;2023-04-24T08:04:43;15.07;;;9.87;;
71622;SDS011;59473;53.214;5.728;2023-04-24T08:07:08;20.00;;;10.73;;
71622;SDS011;59473;53.214;5.728;2023-04-24T08:09:33;18.53;;;10.40;;
71622;SDS011;59473;53.214;5.728;2023-04-24T08:11:59;20.77;;;11.33;;
71622;SDS011;59473;53.214;5.728;2023-04-24T08:14:24;23.30;;;10.48;;
71622;SDS011;59473;53.214;5.728;2023-04-24T08:16:50;22.53;;;11.60;;
71622;SDS011;59473;53.214;5.728;2023-04-24T08:19:15;21.00;;;10.43;;
71622;SDS011;59473;53.214;5.728;2023-04-24T08:21:40;23.37;;;11.23;;
71622;SDS011;59473;53.214;5.728;2023-04-24T08:24:05;17.57;;;8.80;;
71622;SDS011;59473;53.214;5.728;2023-04-24T08:26:32;17.23;;;9.10;;
71622;SDS011;59473;53.214;5.728;2023-04-24T08:28:58;16.70;;;7.53;;
71622;SDS011;59473;53.214;5.728;2023-04-24T08:31:23;16.47;;;8.30;;
71622;SDS011;59473;53.214;5.728;2023-04-24T08:33:50;15.52;;;8.05;;
71622;SDS011;59473;53.214;5.728;2023-04-24T08:36:15;13.63;;;6.37;;
71622;SDS011;59473;53.214;5.728;2023-04-24T08:38:40;15.63;;;7.57;;
71622;SDS011;59473;53.214;5.728;2023-04-24T08:41:06;15.05;;;6.22;;
71622;SDS011;59473;53.214;5.728;2023-04-24T08:43:32;13.80;;;5.67;;
71622;SDS011;59473;53.214;5.728;2023-04-24T08:45:58;11.32;;;5.20;;
71622;SDS011;59473;53.214;5.728;2023-04-24T08:48:24;11.63;;;5.23;;
71622;SDS011;59473;53.214;5.728;2023-04-24T08:50:50;12.00;;;5.45;;
71622;SDS011;59473;53.214;5.728;2023-04-24T08:53:16;12.55;;;5.53;;
71622;SDS011;59473;53.214;5.728;2023-04-24T08:55:41;13.50;;;5.93;;
71622;SDS011;59473;53.214;5.728;2023-04-24T08:58:08;12.02;;;6.18;;
71622;SDS011;59473;53.214;5.728;2023-04-24T09:00:33;16.37;;;6.50;;
71622;SDS011;59473;53.214;5.728;2023-04-24T09:02:59;19.77;;;6.90;;
71622;SDS011;59473;53.214;5.728;2023-04-24T09:05:25;14.73;;;5.93;;
71622;SDS011;59473;53.214;5.728;2023-04-24T09:07:53;15.90;;;5.80;;
71622;SDS011;59473;53.214;5.728;2023-04-24T09:10:19;17.42;;;6.40;;
71622;SDS011;59473;53.214;5.728;2023-04-24T09:12:44;15.63;;;5.60;;
71622;SDS011;59473;53.214;5.728;2023-04-24T09:15:10;15.85;;;5.25;;
71622;SDS011;59473;53.214;5.728;2023-04-24T09:17:35;14.67;;;5.10;;
71622;SDS011;59473;53.214;5.728;2023-04-24T09:20:01;17.73;;;5.93;;
71622;SDS011;59473;53.214;5.728;2023-04-24T09:22:29;17.25;;;5.68;;
71622;SDS011;59473;53.214;5.728;2023-04-24T09:25:04;17.93;;;5.13;;
71622;SDS011;59473;53.214;5.728;2023-04-24T09:27:31;13.98;;;5.13;;
71622;SDS011;59473;53.214;5.728;2023-04-24T09:29:56;13.53;;;5.20;;
71622;SDS011;59473;53.214;5.728;2023-04-24T09:32:22;14.95;;;4.72;;
71622;SDS011;59473;53.214;5.728;2023-04-24T09:34:48;15.03;;;4.70;;
71622;SDS011;59473;53.214;5.728;2023-04-24T09:37:29;14.25;;;5.18;;
71622;SDS011;59473;53.214;5.728;2023-04-24T09:42:38;16.30;;;5.32;;
71622;SDS011;59473;53.214;5.728;2023-04-24T09:45:08;13.47;;;4.47;;
71622;SDS011;59473;53.214;5.728;2023-04-24T09:47:39;12.18;;;3.88;;
71622;SDS011;59473;53.214;5.728;2023-04-24T09:50:09;15.00;;;4.50;;
71622;SDS011;59473;53.214;5.728;2023-04-24T09:52:34;15.13;;;4.70;;
71622;SDS011;59473;53.214;5.728;2023-04-24T09:55:00;16.63;;;4.10;;
71622;SDS011;59473;53.214;5.728;2023-04-24T09:57:25;14.00;;;4.47;;
71622;SDS011;59473;53.214;5.728;2023-04-24T09:59:50;15.13;;;5.37;;
71622;SDS011;59473;53.214;5.728;2023-04-24T10:02:18;14.73;;;4.72;;
71622;SDS011;59473;53.214;5.728;2023-04-24T10:04:53;15.88;;;4.22;;
71622;SDS011;59473;53.214;5.728;2023-04-24T10:07:18;14.95;;;4.25;;
71622;SDS011;59473;53.214;5.728;2023-04-24T10:09:44;12.33;;;4.17;;
71622;SDS011;59473;53.214;5.728;2023-04-24T10:12:09;16.63;;;5.17;;
71622;SDS011;59473;53.214;5.728;2023-04-24T10:14:35;12.27;;;4.55;;
71622;SDS011;59473;53.214;5.728;2023-04-24T10:17:01;13.73;;;4.30;;
71622;SDS011;59473;53.214;5.728;2023-04-24T10:19:26;15.80;;;4.00;;
71622;SDS011;59473;53.214;5.728;2023-04-24T10:21:52;17.80;;;4.53;;
71622;SDS011;59473;53.214;5.728;2023-04-24T10:24:18;12.82;;;3.30;;
71622;SDS011;59473;53.214;5.728;2023-04-24T10:26:45;12.80;;;3.97;;
71622;SDS011;59473;53.214;5.728;2023-04-24T10:29:11;16.27;;;4.78;;
71622;SDS011;59473;53.214;5.728;2023-04-24T10:31:37;18.55;;;5.28;;
71622;SDS011;59473;53.214;5.728;2023-04-24T10:34:04;17.73;;;4.20;;
71622;SDS011;59473;53.214;5.728;2023-04-24T10:36:30;14.13;;;4.43;;
71622;SDS011;59473;53.214;5.728;2023-04-24T10:38:57;14.57;;;4.13;;
71622;SDS011;59473;53.214;5.728;2023-04-24T10:41:24;15.60;;;4.70;;
71622;SDS011;59473;53.214;5.728;2023-04-24T10:46:31;13.60;;;4.38;;
71622;SDS011;59473;53.214;5.728;2023-04-24T10:48:57;15.80;;;4.30;;
71622;SDS011;59473;53.214;5.728;2023-04-24T10:51:23;14.25;;;4.00;;
71622;SDS011;59473;53.214;5.728;2023-04-24T10:53:52;11.10;;;3.95;;
71622;SDS011;59473;53.214;5.728;2023-04-24T10:56:17;15.45;;;3.88;;
71622;SDS011;59473;53.214;5.728;2023-04-24T11:03:54;13.03;;;3.67;;
71622;SDS011;59473;53.214;5.728;2023-04-24T11:06:21;11.80;;;3.92;;
71622;SDS011;59473;53.214;5.728;2023-04-24T11:08:53;11.18;;;3.95;;
71622;SDS011;59473;53.214;5.728;2023-04-24T11:11:23;8.65;;;4.05;;
71622;SDS011;59473;53.214;5.728;2023-04-24T11:18:50;10.90;;;3.33;;
71622;SDS011;59473;53.214;5.728;2023-04-24T11:21:18;8.10;;;3.00;;
71622;SDS011;59473;53.214;5.728;2023-04-24T11:23:44;8.60;;;3.15;;
71622;SDS011;59473;53.214;5.728;2023-04-24T11:26:14;11.60;;;3.10;;
71622;SDS011;59473;53.214;5.728;2023-04-24T11:28:45;11.13;;;3.70;;
71622;SDS011;59473;53.214;5.728;2023-04-24T11:33:55;11.82;;;3.50;;
71622;SDS011;59473;53.214;5.728;2023-04-24T11:36:20;19.90;;;4.07;;
71622;SDS011;59473;53.214;5.728;2023-04-24T11:38:45;15.17;;;4.47;;
71622;SDS011;59473;53.214;5.728;2023-04-24T11:41:11;12.20;;;3.85;;
71622;SDS011;59473;53.214;5.728;2023-04-24T11:43:38;14.70;;;3.50;;
71622;SDS011;59473;53.214;5.728;2023-04-24T11:46:04;8.20;;;2.73;;
71622;SDS011;59473;53.214;5.728;2023-04-24T11:48:29;9.10;;;2.55;;
71622;SDS011;59473;53.214;5.728;2023-04-24T11:50:55;12.48;;;3.10;;
71622;SDS011;59473;53.214;5.728;2023-04-24T11:53:21;10.77;;;3.13;;
71622;SDS011;59473;53.214;5.728;2023-04-24T11:55:46;8.15;;;2.17;;
71622;SDS011;59473;53.214;5.728;2023-04-24T11:58:12;9.87;;;2.37;;
71622;SDS011;59473;53.214;5.728;2023-04-24T12:00:37;9.13;;;2.87;;
71622;SDS011;59473;53.214;5.728;2023-04-24T12:03:04;7.90;;;2.85;;
71622;SDS011;59473;53.214;5.728;2023-04-24T12:05:30;8.90;;;2.53;;
71622;SDS011;59473;53.214;5.728;2023-04-24T12:07:59;6.60;;;2.40;;
71622;SDS011;59473;53.214;5.728;2023-04-24T12:10:25;9.97;;;2.80;;
71622;SDS011;59473;53.214;5.728;2023-04-24T12:12:51;10.80;;;2.95;;
71622;SDS011;59473;53.214;5.728;2023-04-24T12:15:17;9.73;;;2.78;;
71622;SDS011;59473;53.214;5.728;2023-04-24T12:17:43;10.30;;;2.57;;
71622;SDS011;59473;53.214;5.728;2023-04-24T12:20:08;11.55;;;2.60;;
71622;SDS011;59473;53.214;5.728;2023-04-24T12:25:10;11.85;;;2.80;;
71622;SDS011;59473;53.214;5.728;2023-04-24T12:27:35;9.10;;;3.00;;
71622;SDS011;59473;53.214;5.728;2023-04-24T12:30:01;7.80;;;2.80;;
71622;SDS011;59473;53.214;5.728;2023-04-24T12:32:27;7.30;;;2.45;;
71622;SDS011;59473;53.214;5.728;2023-04-24T12:34:53;8.67;;;2.83;;
71622;SDS011;59473;53.214;5.728;2023-04-24T12:37:18;6.22;;;2.50;;
71622;SDS011;59473;53.214;5.728;2023-04-24T12:40:00;10.23;;;3.13;;
71622;SDS011;59473;53.214;5.728;2023-04-24T12:42:29;8.40;;;3.10;;
71622;SDS011;59473;53.214;5.728;2023-04-24T12:44:58;9.27;;;2.65;;
71622;SDS011;59473;53.214;5.728;2023-04-24T12:47:26;9.93;;;2.63;;
71622;SDS011;59473;53.214;5.728;2023-04-24T12:49:52;10.23;;;2.83;;
71622;SDS011;59473;53.214;5.728;2023-04-24T12:52:24;13.03;;;3.53;;
71622;SDS011;59473;53.214;5.728;2023-04-24T12:54:50;10.25;;;2.85;;
71622;SDS011;59473;53.214;5.728;2023-04-24T12:57:15;9.88;;;3.40;;
71622;SDS011;59473;53.214;5.728;2023-04-24T12:59:40;13.83;;;3.60;;
71622;SDS011;59473;53.214;5.728;2023-04-24T13:02:06;14.43;;;3.43;;
71622;SDS011;59473;53.214;5.728;2023-04-24T13:04:31;14.07;;;3.70;;
71622;SDS011;59473;53.214;5.728;2023-04-24T13:06:57;11.23;;;2.63;;
71622;SDS011;59473;53.214;5.728;2023-04-24T13:09:22;14.37;;;4.00;;
71622;SDS011;59473;53.214;5.728;2023-04-24T13:11:49;13.07;;;4.10;;
71622;SDS011;59473;53.214;5.728;2023-04-24T13:14:14;15.07;;;4.53;;
71622;SDS011;59473;53.214;5.728;2023-04-24T13:16:40;14.52;;;4.32;;
71622;SDS011;59473;53.214;5.728;2023-04-24T13:19:05;15.07;;;3.83;;
71622;SDS011;59473;53.214;5.728;2023-04-24T13:21:30;15.27;;;4.80;;
71622;SDS011;59473;53.214;5.728;2023-04-24T13:23:56;17.92;;;5.20;;
71622;SDS011;59473;53.214;5.728;2023-04-24T13:26:22;11.73;;;3.87;;
71622;SDS011;59473;53.214;5.728;2023-04-24T13:28:47;9.50;;;3.20;;
71622;SDS011;59473;53.214;5.728;2023-04-24T13:31:12;7.97;;;3.10;;
71622;SDS011;59473;53.214;5.728;2023-04-24T13:33:38;8.27;;;3.23;;
71622;SDS011;59473;53.214;5.728;2023-04-24T13:36:04;9.50;;;3.13;;
71622;SDS011;59473;53.214;5.728;2023-04-24T13:38:29;13.13;;;3.47;;
71622;SDS011;59473;53.214;5.728;2023-04-24T13:40:54;13.80;;;4.53;;
71622;SDS011;59473;53.214;5.728;2023-04-24T13:43:19;12.40;;;4.20;;
71622;SDS011;59473;53.214;5.728;2023-04-24T13:45:45;14.03;;;4.00;;
71622;SDS011;59473;53.214;5.728;2023-04-24T13:48:10;12.90;;;3.57;;
71622;SDS011;59473;53.214;5.728;2023-04-24T13:50:35;14.03;;;4.27;;
71622;SDS011;59473;53.214;5.728;2023-04-24T13:53:01;15.33;;;4.30;;
71622;SDS011;59473;53.214;5.728;2023-04-24T13:55:27;10.18;;;2.92;;
71622;SDS011;59473;53.214;5.728;2023-04-24T13:57:52;10.83;;;3.53;;
71622;SDS011;59473;53.214;5.728;2023-04-24T14:00:20;20.85;;;4.72;;
71622;SDS011;59473;53.214;5.728;2023-04-24T14:02:45;14.93;;;4.13;;
71622;SDS011;59473;53.214;5.728;2023-04-24T14:05:10;7.27;;;3.17;;
71622;SDS011;59473;53.214;5.728;2023-04-24T14:07:36;25.17;;;4.73;;
71622;SDS011;59473;53.214;5.728;2023-04-24T14:10:01;18.73;;;4.43;;
71622;SDS011;59473;53.214;5.728;2023-04-24T14:12:27;21.57;;;5.13;;
71622;SDS011;59473;53.214;5.728;2023-04-24T14:14:52;19.92;;;4.88;;
71622;SDS011;59473;53.214;5.728;2023-04-24T14:17:17;16.07;;;4.60;;
71622;SDS011;59473;53.214;5.728;2023-04-24T14:19:42;16.47;;;4.80;;
71622;SDS011;59473;53.214;5.728;2023-04-24T14:22:08;19.50;;;5.07;;
71622;SDS011;59473;53.214;5.728;2023-04-24T14:24:33;19.07;;;4.70;;
71622;SDS011;59473;53.214;5.728;2023-04-24T14:26:58;15.47;;;4.50;;
71622;SDS011;59473;53.214;5.728;2023-04-24T14:29:23;22.47;;;5.33;;
71622;SDS011;59473;53.214;5.728;2023-04-24T14:31:50;16.90;;;4.82;;
71622;SDS011;59473;53.214;5.728;2023-04-24T14:34:16;21.73;;;5.20;;
71622;SDS011;59473;53.214;5.728;2023-04-24T14:36:41;15.30;;;4.50;;
71622;SDS011;59473;53.214;5.728;2023-04-24T14:39:06;13.70;;;4.37;;
71622;SDS011;59473;53.214;5.728;2023-04-24T14:41:32;16.07;;;4.43;;
71622;SDS011;59473;53.214;5.728;2023-04-24T14:44:00;19.65;;;5.57;;